Newtown, Virginia
Current Conditions -  °F | °C
As of 1:35 AM on Thursday 27 Nov 2014 (Local Time) from KXSA Reporting Station
Broken Clouds Broken Clouds  
Wind Chill: 36°   Ceiling: 9000
Heat Index: 36°   Visibility: 10mi
Dew Point: 33°   Wind: 0mph
Humidity: 89%   Direction: NA
Pressure: 30.04"   Gusts: NA
Location:  37.91°N, 77.12°W
Report Text: KXSA 270635Z AUTO 00000KT 10SM BKN090 02/01 A3004 RMK AO2 T00230006
Loading
Personal Weather Stations






























Interactive Weather Map New forecast layout! Learn more

10-Day Weather Forecast

Advertisements
Track Severe Weather on mobile